Time;durP1;ratioP1;P1;durP2;ratioP2;P2;SDS_P1;SDS_P2;PMS_P1;PMS_P2;Temp;Humidity;BMP_temperature;BMP_pressure;BME280_temperature;BME280_humidity;BME280_pressure;Samples;Min_cycle;Max_cycle;Signal;HPM_P1;HPM_P2
2022/11/13 00:01:18;;;;;;;;;35.50;34.00;;;;;14.40;70.40;101713.16;4996248;28;46456;-76
2022/11/13 00:03:44;;;;;;;;;39.50;33.00;;;;;14.36;70.75;101711.63;5014411;28;46399;-76
2022/11/13 00:06:11;;;;;;;;;34.25;32.25;;;;;14.37;70.44;101709.84;4996646;28;45636;-76
2022/11/13 00:08:37;;;;;;;;;33.25;32.50;;;;;14.37;70.69;101717.75;5014537;28;45573;-75
2022/11/13 00:11:05;;;;;;;;;45.50;39.00;;;;;14.36;70.62;101714.25;5014122;28;46913;-77
2022/11/13 00:13:31;;;;;;;;;34.00;33.50;;;;;14.28;70.64;101706.03;5014342;28;46251;-75
2022/11/13 00:16:03;;;;;;;;;37.50;33.75;;;;;14.33;70.68;101703.09;4996177;28;45858;-76
2022/11/13 00:18:29;;;;;;;;;38.25;34.00;;;;;14.30;70.71;101701.53;5013284;28;45785;-76
2022/11/13 00:20:56;;;;;;;;;34.25;32.75;;;;;14.24;70.43;101701.94;5013917;28;45583;-76
2022/11/13 00:23:22;;;;;;;;;33.50;31.50;;;;;14.25;70.70;101704.44;4996107;28;47700;-75
2022/11/13 00:25:47;;;;;;;;;33.25;30.25;;;;;14.23;70.92;101692.34;5014213;28;45494;-76
2022/11/13 00:31:34;;;;;;;;;41.75;36.25;;;;;14.18;70.49;101692.66;5012398;28;45671;-76
2022/11/13 00:33:59;;;;;;;;;40.75;34.75;;;;;14.12;71.15;101682.53;5014286;28;45631;-77
2022/11/13 00:36:27;;;;;;;;;35.50;31.25;;;;;14.18;70.79;101692.66;5013975;28;45651;-73
2022/11/13 00:38:53;;;;;;;;;37.75;35.25;;;;;14.13;70.81;101681.59;5013717;28;45589;-75
2022/11/13 00:41:18;;;;;;;;;34.50;32.00;;;;;14.15;70.98;101686.75;5013777;28;46443;-77
2022/11/13 00:43:44;;;;;;;;;33.25;30.25;;;;;14.15;71.00;101689.38;4996200;28;47281;-76
2022/11/13 00:46:10;;;;;;;;;35.25;33.00;;;;;14.15;71.04;101682.31;5013778;28;45584;-78
2022/11/13 00:48:36;;;;;;;;;35.25;32.25;;;;;14.10;70.85;101676.50;5014286;28;45758;-78
2022/11/13 00:51:02;;;;;;;;;35.00;31.75;;;;;14.16;70.53;101677.88;5013503;28;45660;-78
2022/11/13 00:53:27;;;;;;;;;27.00;26.75;;;;;14.15;70.64;101669.13;5013944;28;46235;-74
2022/11/13 00:55:53;;;;;;;;;33.25;30.25;;;;;14.15;70.53;101661.22;5013753;28;45690;-78
2022/11/13 01:01:40;;;;;;;;;30.75;27.00;;;;;14.12;70.47;101658.81;5013495;28;45978;-77
2022/11/13 01:04:05;;;;;;;;;48.50;40.25;;;;;14.12;70.59;101652.69;5013520;28;46340;-74
2022/11/13 01:06:30;;;;;;;;;52.75;41.50;;;;;14.08;70.55;101643.31;5013796;28;45581;-78
2022/11/13 01:08:58;;;;;;;;;59.50;46.75;;;;;14.01;70.32;101635.00;5013715;28;45529;-77
2022/11/13 01:11:27;;;;;;;;;58.50;47.00;;;;;14.04;70.45;101647.94;5013525;28;45792;-77
2022/11/13 01:13:53;;;;;;;;;57.75;45.75;;;;;14.02;70.70;101641.13;5013581;28;46160;-77
2022/11/13 01:16:22;;;;;;;;;60.25;49.00;;;;;13.92;70.37;101618.97;4995484;28;45577;-77
2022/11/13 01:18:47;;;;;;;;;56.00;46.75;;;;;13.91;70.55;101625.19;5013644;28;45631;-75
2022/11/13 01:21:19;;;;;;;;;59.25;48.00;;;;;13.87;70.68;101619.31;5013037;28;46368;-77
2022/11/13 01:23:44;;;;;;;;;59.00;48.75;;;;;13.83;70.45;101629.19;5013109;28;46766;-77
2022/11/13 01:26:13;;;;;;;;;59.50;49.00;;;;;13.79;70.64;101621.59;5013220;28;45557;-77
2022/11/13 01:32:01;;;;;;;;;63.00;49.25;;;;;13.63;70.37;101613.91;5011883;28;46110;-76
2022/11/13 01:34:26;;;;;;;;;61.50;51.25;;;;;13.58;70.78;101613.38;5013230;28;46534;-76
2022/11/13 01:36:51;;;;;;;;;59.25;48.00;;;;;13.50;70.78;101609.56;5012860;28;45674;-77
2022/11/13 01:39:17;;;;;;;;;58.50;47.00;;;;;13.51;70.52;101616.50;5013027;28;45769;-75
2022/11/13 01:41:42;;;;;;;;;59.25;47.50;;;;;13.47;70.80;101615.88;5012960;28;45891;-78
2022/11/13 01:44:13;;;;;;;;;55.25;45.00;;;;;13.41;70.64;101611.88;5013039;28;46165;-78
2022/11/13 01:47:08;;;;;;;;;54.25;45.00;;;;;13.43;70.89;101615.25;5013250;28;46208;-78
2022/11/13 01:49:37;;;;;;;;;60.75;48.25;;;;;13.43;70.67;101615.25;4913226;28;45890;-78
2022/11/13 01:52:07;;;;;;;;;59.00;47.50;;;;;13.44;70.94;101614.28;4912942;28;46507;-77
2022/11/13 01:54:42;;;;;;;;;60.25;48.25;;;;;13.43;70.61;101614.41;4913318;28;45948;-74
2022/11/13 01:57:08;;;;;;;;;64.25;48.50;;;;;13.46;71.08;101611.56;4913264;28;45566;-75
2022/11/13 01:59:38;;;;;;;;;62.50;49.25;;;;;13.46;71.00;101608.94;4913388;28;45816;-76
2022/11/13 02:02:04;;;;;;;;;62.25;50.00;;;;;13.43;70.55;101601.25;4913231;28;46906;-75
2022/11/13 02:04:31;;;;;;;;;64.00;50.50;;;;;13.45;70.77;101594.06;4913517;28;46139;-73
2022/11/13 02:07:00;;;;;;;;;58.25;48.00;;;;;13.33;70.55;101582.56;4913252;28;45725;-75
2022/11/13 02:09:34;;;;;;;;;59.00;49.00;;;;;13.37;70.51;101573.56;4913360;28;45882;-77
2022/11/13 02:12:00;;;;;;;;;60.75;47.25;;;;;13.43;70.77;101580.19;4912806;28;46194;-73
2022/11/13 02:14:27;;;;;;;;;57.50;47.00;;;;;13.46;70.78;101579.97;4913032;28;45835;-76
2022/11/13 02:16:57;;;;;;;;;55.25;43.50;;;;;13.42;70.92;101566.19;4912993;28;45952;-76
2022/11/13 02:19:28;;;;;;;;;55.75;42.50;;;;;13.44;70.69;101566.91;4913051;28;45719;-75
2022/11/13 02:22:01;;;;;;;;;60.00;47.50;;;;;13.44;71.00;101566.91;4912712;28;46310;-75
2022/11/13 02:24:34;;;;;;;;;56.00;46.00;;;;;13.48;70.78;101587.78;4913077;28;46212;-75
2022/11/13 02:27:07;;;;;;;;;54.00;44.75;;;;;13.43;70.76;101570.50;5004630;28;45816;-76
2022/11/13 02:29:33;;;;;;;;;56.00;45.00;;;;;13.45;70.85;101575.66;5012413;28;46060;-76
2022/11/13 02:31:58;;;;;;;;;54.75;45.25;;;;;13.48;70.85;101579.88;5012091;28;46374;-77
2022/11/13 02:34:23;;;;;;;;;53.75;43.50;;;;;13.48;70.89;101574.59;5012478;28;46206;-77
2022/11/13 02:36:49;;;;;;;;;55.00;44.50;;;;;13.47;70.55;101567.66;5012507;28;45515;-75
2022/11/13 02:39:15;;;;;;;;;50.25;39.75;;;;;13.46;70.57;101572.06;5012149;28;45845;-75
2022/11/13 02:41:40;;;;;;;;;50.75;43.25;;;;;13.48;70.65;101569.34;5012753;28;46410;-77
2022/11/13 02:47:27;;;;;;;;;56.50;44.00;;;;;13.46;70.61;101561.53;5015549;28;45964;-75
2022/11/13 02:49:53;;;;;;;;;56.00;43.75;;;;;13.48;71.04;101558.81;5015727;28;45759;-76
2022/11/13 02:52:18;;;;;;;;;50.00;40.00;;;;;13.45;70.87;101554.59;5015491;28;45739;-77
2022/11/13 02:54:44;;;;;;;;;50.00;40.75;;;;;13.44;70.45;101559.00;5015469;28;47141;-77
2022/11/13 02:57:09;;;;;;;;;57.00;43.75;;;;;13.45;70.87;101551.94;5015782;28;45791;-77
2022/11/13 02:59:34;;;;;;;;;36.00;33.00;;;;;13.45;70.96;101562.47;5015422;28;45547;-75
2022/11/13 03:02:00;;;;;;;;;54.00;44.00;;;;;13.46;70.83;101564.16;5015470;28;45497;-78
2022/11/13 03:04:25;;;;;;;;;51.75;40.50;;;;;13.47;70.96;101567.66;5015289;28;47156;-77
2022/11/13 03:06:50;;;;;;;;;43.50;37.25;;;;;13.46;70.63;101569.44;5015308;28;46018;-77
2022/11/13 03:09:16;;;;;;;;;44.50;37.25;;;;;13.44;70.50;101572.16;5015518;28;45703;-77
2022/11/13 03:11:44;;;;;;;;;43.25;37.00;;;;;13.41;70.82;101563.66;5015258;28;46272;-75
2022/11/13 03:17:31;;;;;;;;;42.25;37.00;;;;;13.38;70.45;101553.34;5015299;28;45651;-75
2022/11/13 03:19:57;;;;;;;;;36.75;34.25;;;;;13.40;70.43;101577.75;5015400;28;45683;-75
2022/11/13 03:22:22;;;;;;;;;39.25;34.00;;;;;13.39;70.71;101565.53;5015266;28;46549;-75
2022/11/13 03:24:47;;;;;;;;;37.25;31.50;;;;;13.37;70.55;101567.44;5014893;28;46411;-76
2022/11/13 03:27:13;;;;;;;;;32.25;30.25;;;;;13.35;70.80;101556.16;5015265;28;45706;-75
2022/11/13 03:33:00;;;;;;;;;30.75;29.25;;;;;13.38;70.62;101551.56;5012888;28;45796;-76
2022/11/13 03:35:25;;;;;;;;;32.00;28.25;;;;;13.35;71.01;101551.75;5014927;28;46861;-77
2022/11/13 03:37:51;;;;;;;;;32.75;29.75;;;;;13.33;70.54;101537.81;5015065;28;45865;-79
2022/11/13 03:40:16;;;;;;;;;38.25;27.25;;;;;13.33;70.45;101540.47;4996691;28;45628;-77
2022/11/13 03:42:42;;;;;;;;;36.00;31.00;;;;;13.33;70.85;101540.47;5015029;28;46794;-76
2022/11/13 03:45:07;;;;;;;;;31.75;28.50;;;;;13.25;70.96;101527.00;4996891;28;48449;-76
2022/11/13 03:47:33;;;;;;;;;31.50;29.75;;;;;13.29;71.14;101535.50;5014976;28;45712;-77
2022/11/13 03:49:58;;;;;;;;;30.25;28.50;;;;;13.28;70.98;101537.28;5014956;28;45742;-77
2022/11/13 03:52:23;;;;;;;;;32.75;28.50;;;;;13.28;70.81;101531.22;5014586;28;46688;-78
2022/11/13 03:54:49;;;;;;;;;30.50;26.00;;;;;13.26;71.07;101538.38;5013406;28;47285;-77
2022/11/13 03:57:14;;;;;;;;;29.50;26.75;;;;;13.26;70.64;101533.09;5014808;28;45687;-76
2022/11/13 04:03:01;;;;;;;;;30.25;26.25;;;;;13.24;70.97;101530.56;5014472;28;45635;-78
2022/11/13 04:05:26;;;;;;;;;30.75;27.00;;;;;13.24;71.18;101521.81;5014590;28;45953;-76
2022/11/13 04:07:52;;;;;;;;;23.25;23.00;;;;;13.20;70.68;101517.72;5014789;28;45615;-77
2022/11/13 04:10:17;;;;;;;;;27.00;26.50;;;;;13.18;70.62;101511.72;5013920;28;45736;-78
2022/11/13 04:12:43;;;;;;;;;28.00;26.00;;;;;13.23;71.06;101520.13;5014645;28;45607;-76
2022/11/13 04:15:09;;;;;;;;;53.50;41.75;;;;;13.22;70.94;101514.06;5014367;28;45851;-77
2022/11/13 04:17:34;;;;;;;;;49.00;38.50;;;;;13.20;70.40;101517.72;5014081;28;45797;-76
2022/11/13 04:19:59;;;;;;;;;50.25;42.75;;;;;13.18;70.82;101520.44;5014404;28;45597;-77
2022/11/13 04:22:25;;;;;;;;;54.25;44.25;;;;;13.16;70.78;101516.25;5014401;28;46282;-75
2022/11/13 04:24:50;;;;;;;;;46.75;40.00;;;;;12.99;70.79;101485.78;5014127;28;47010;-77
2022/11/13 04:27:16;;;;;;;;;55.50;44.00;;;;;13.08;70.74;101505.34;5014313;28;45697;-79
2022/11/13 04:33:02;;;;;;;;;55.00;45.75;;;;;13.04;70.47;101510.84;5013638;28;45792;-77
2022/11/13 04:35:28;;;;;;;;;55.75;45.00;;;;;13.03;70.64;101517.03;5014138;28;45715;-74
2022/11/13 04:37:53;;;;;;;;;58.25;46.75;;;;;13.02;70.42;101517.13;5014128;28;45730;-75
2022/11/13 04:40:18;;;;;;;;;57.75;46.00;;;;;12.96;70.18;101512.25;5013888;28;45629;-77
2022/11/13 04:42:50;;;;;;;;;57.50;45.50;;;;;12.84;70.08;101494.69;5013991;28;47219;-74
2022/11/13 04:48:37;;;;;;;;;55.75;45.50;;;;;12.84;70.13;101492.91;5013584;28;45508;-76
2022/11/13 04:51:02;;;;;;;;;50.50;39.25;;;;;12.85;70.08;101494.56;5013861;28;45822;-79
2022/11/13 04:53:27;;;;;;;;;39.00;33.50;;;;;12.89;69.96;101511.00;5013847;28;45551;-76
2022/11/13 04:55:53;;;;;;;;;46.00;38.00;;;;;12.88;70.35;101506.69;5013726;28;45603;-76
2022/11/13 04:58:18;;;;;;;;;48.25;37.00;;;;;12.86;70.31;101511.19;5013496;28;45553;-77
2022/11/13 05:00:44;;;;;;;;;45.25;38.25;;;;;12.86;69.95;101511.19;5013958;28;45640;-76
2022/11/13 05:03:09;;;;;;;;;43.50;35.75;;;;;12.83;70.33;101507.00;5013913;28;45709;-77
2022/11/13 05:05:34;;;;;;;;;39.50;35.00;;;;;12.77;70.02;101498.66;5013034;28;46093;-76
2022/11/13 05:08:00;;;;;;;;;50.75;37.50;;;;;12.81;69.84;101502.78;5013754;28;45817;-75
2022/11/13 05:10:25;;;;;;;;;46.25;35.50;;;;;12.80;70.36;101511.59;5013303;28;45540;-76
2022/11/13 05:12:50;;;;;;;;;42.00;37.25;;;;;12.80;70.16;101499.28;5013648;28;45545;-77
2022/11/13 05:18:38;;;;;;;;;50.75;42.25;;;;;12.78;70.21;101495.94;5013354;28;45755;-76
2022/11/13 05:21:05;;;;;;;;;49.50;41.50;;;;;12.74;70.01;101497.06;5013709;28;45779;-76
2022/11/13 05:23:31;;;;;;;;;46.25;41.00;;;;;12.73;70.01;101494.56;5013359;28;45563;-77
2022/11/13 05:26:06;;;;;;;;;49.25;39.75;;;;;12.74;70.46;101497.06;5013597;28;46439;-77
2022/11/13 05:28:32;;;;;;;;;50.00;42.00;;;;;12.70;70.11;101492.13;5013371;28;46018;-76
2022/11/13 05:31:12;;;;;;;;;50.00;41.75;;;;;12.74;69.97;101498.88;5013462;28;45700;-77
2022/11/13 05:33:38;;;;;;;;;53.00;42.50;;;;;12.71;69.84;101492.03;5012993;28;45764;-77
2022/11/13 05:36:07;;;;;;;;;47.00;39.25;;;;;12.66;69.73;101483.59;5013135;28;46163;-77
2022/11/13 05:38:33;;;;;;;;;48.50;41.25;;;;;12.66;70.03;101488.00;5013230;28;45771;-75
2022/11/13 05:41:08;;;;;;;;;49.25;41.00;;;;;12.63;69.80;101482.97;5013226;28;45684;-75
2022/11/13 05:43:37;;;;;;;;;46.50;39.50;;;;;12.47;69.62;101468.16;5012967;28;47400;-77
2022/11/13 05:46:20;;;;;;;;;51.25;41.50;;;;;12.54;69.94;101492.28;4995153;28;45661;-77
2022/11/13 05:48:50;;;;;;;;;49.25;41.50;;;;;12.55;69.87;101478.19;5012947;28;45876;-77
2022/11/13 05:51:19;;;;;;;;;47.50;39.00;;;;;12.46;69.62;101474.41;5013245;28;45737;-76
2022/11/13 05:53:45;;;;;;;;;45.75;38.50;;;;;12.41;69.99;101462.50;4995325;28;47773;-75
2022/11/13 05:56:16;;;;;;;;;45.25;40.50;;;;;12.48;70.04;101475.13;5013217;28;46536;-77
2022/11/13 05:58:42;;;;;;;;;44.00;38.75;;;;;12.48;69.61;101475.13;5012941;28;45767;-74
2022/11/13 06:01:22;;;;;;;;;49.00;41.00;;;;;12.49;69.73;101460.19;5012784;28;45585;-77
2022/11/13 06:03:48;;;;;;;;;48.50;41.50;;;;;12.47;69.85;101452.41;5012911;28;45573;-78
2022/11/13 06:06:16;;;;;;;;;49.00;41.00;;;;;12.47;69.77;101454.22;5012894;28;45819;-76
2022/11/13 06:08:42;;;;;;;;;51.50;42.00;;;;;12.46;69.93;101452.53;5012474;28;45844;-76
2022/11/13 06:11:10;;;;;;;;;47.00;39.25;;;;;12.46;69.68;101448.13;5012946;28;45618;-74
2022/11/13 06:13:36;;;;;;;;;36.50;32.50;;;;;12.46;69.64;101444.63;5012524;28;46561;-77
2022/11/13 06:16:05;;;;;;;;;37.00;35.50;;;;;12.44;69.62;101442.09;5012942;28;45967;-76
2022/11/13 06:18:31;;;;;;;;;45.00;39.00;;;;;12.39;69.74;101441.56;5016130;28;45769;-77
2022/11/13 06:21:10;;;;;;;;;47.00;39.00;;;;;12.42;69.59;101443.13;5016484;28;45542;-78
2022/11/13 06:23:38;;;;;;;;;52.75;40.50;;;;;12.42;69.78;101422.09;5016319;28;46664;-75
2022/11/13 06:26:06;;;;;;;;;45.75;38.50;;;;;12.43;69.63;101432.53;5016452;28;45770;-76
2022/11/13 06:28:32;;;;;;;;;41.00;37.25;;;;;12.44;69.67;101436.00;5016506;28;45795;-76
2022/11/13 06:34:19;;;;;;;;;37.25;35.00;;;;;12.40;69.64;101421.38;5014328;28;46149;-77
2022/11/13 06:36:45;;;;;;;;;31.50;26.50;;;;;12.41;70.00;101423.91;5016550;28;45596;-77
2022/11/13 06:39:11;;;;;;;;;29.50;27.00;;;;;12.41;69.78;101423.91;5016131;28;45497;-76
2022/11/13 06:41:40;;;;;;;;;29.25;27.50;;;;;12.37;69.77;101411.91;5015971;28;45901;-75
2022/11/13 06:44:05;;;;;;;;;26.50;22.25;;;;;12.38;69.62;101424.09;5015723;28;45761;-75
2022/11/13 06:46:31;;;;;;;;;22.25;21.00;;;;;12.38;69.82;101423.25;5016292;28;46212;-74
2022/11/13 06:48:57;;;;;;;;;22.75;21.00;;;;;12.39;69.82;101428.41;5015709;28;45504;-74
2022/11/13 06:51:27;;;;;;;;;27.00;22.75;;;;;12.39;69.70;101419.69;5015879;28;45772;-74
2022/11/13 06:53:53;;;;;;;;;21.25;20.75;;;;;12.32;69.81;101416.63;5015712;28;45645;-75
2022/11/13 06:56:19;;;;;;;;;21.75;19.00;;;;;12.38;69.90;101423.25;5015836;28;45914;-76
2022/11/13 06:58:44;;;;;;;;;21.50;19.00;;;;;12.39;69.79;101430.19;5015424;28;45822;-77
2022/11/13 07:04:32;;;;;;;;;21.75;20.75;;;;;12.36;69.70;101430.41;5015352;28;46145;-76
2022/11/13 07:06:57;;;;;;;;;22.75;20.75;;;;;12.34;70.01;101420.00;5015678;28;45565;-78
2022/11/13 07:09:22;;;;;;;;;24.75;21.25;;;;;12.36;69.86;101415.47;5015532;28;45707;-76
2022/11/13 07:11:48;;;;;;;;;26.75;20.00;;;;;12.34;69.71;101417.38;5015372;28;45673;-76
2022/11/13 07:14:13;;;;;;;;;21.50;19.25;;;;;12.34;69.65;101420.00;5015558;28;45655;-75
2022/11/13 07:16:38;;;;;;;;;20.25;20.00;;;;;12.33;69.91;101415.69;5015726;28;45905;-77
2022/11/13 07:19:04;;;;;;;;;21.75;20.25;;;;;12.33;69.69;101420.09;5015205;28;45726;-77
2022/11/13 07:21:30;;;;;;;;;21.75;16.50;;;;;12.32;69.81;101426.28;4997229;28;45644;-77
2022/11/13 07:23:56;;;;;;;;;26.00;22.25;;;;;12.30;69.58;101426.41;5015518;28;45663;-77
2022/11/13 07:26:22;;;;;;;;;22.00;21.75;;;;;12.28;69.92;101417.78;5015303;28;45542;-75
2022/11/13 07:28:48;;;;;;;;;24.00;21.00;;;;;12.29;69.50;101426.50;5014859;28;45768;-76
2022/11/13 07:34:35;;;;;;;;;25.00;21.25;;;;;12.26;69.84;101417.00;5014379;28;45715;-77
2022/11/13 07:37:00;;;;;;;;;22.00;19.75;;;;;12.29;69.69;101427.34;5015285;28;45704;-77
2022/11/13 07:39:26;;;;;;;;;20.00;16.25;;;;;12.29;69.37;101423.88;5014763;28;45646;-77
2022/11/13 07:41:51;;;;;;;;;20.00;15.25;;;;;12.29;69.75;101419.47;5015176;28;45919;-74
2022/11/13 07:44:20;;;;;;;;;23.75;20.00;;;;;12.29;69.39;101429.97;5014703;28;46379;-76
2022/11/13 07:46:45;;;;;;;;;18.25;18.00;;;;;12.28;69.35;101417.78;5015016;28;46139;-75
2022/11/13 07:49:10;;;;;;;;;20.25;18.00;;;;;12.27;69.31;101416.06;5014661;28;45623;-76
2022/11/13 07:51:36;;;;;;;;;21.50;19.25;;;;;12.27;69.51;101410.81;5015021;28;45851;-78
2022/11/13 07:54:01;;;;;;;;;18.50;17.00;;;;;12.26;69.50;101409.13;5014828;28;45633;-76
2022/11/13 07:56:27;;;;;;;;;24.00;21.25;;;;;12.24;69.55;101400.53;5014907;28;45732;-77
2022/11/13 07:58:52;;;;;;;;;21.50;18.25;;;;;12.24;69.37;101400.53;5014492;28;45659;-77
2022/11/13 08:04:39;;;;;;;;;16.75;15.00;;;;;12.22;69.05;101399.78;5014742;28;45529;-76
2022/11/13 08:07:04;;;;;;;;;21.25;17.75;;;;;12.23;69.14;101388.31;5014772;28;46347;-76
2022/11/13 08:09:30;;;;;;;;;23.25;19.25;;;;;12.24;69.20;101382.13;5014931;28;45632;-76
2022/11/13 08:11:55;;;;;;;;;19.50;17.25;;;;;12.27;69.12;101388.97;5014617;28;45802;-75
2022/11/13 08:14:21;;;;;;;;;26.25;20.50;;;;;12.32;69.41;101394.75;5014697;28;45609;-78
2022/11/13 08:20:08;;;;;;;;;26.25;21.50;;;;;12.35;69.31;101390.16;5014259;28;45842;-76
2022/11/13 08:22:34;;;;;;;;;19.25;17.00;;;;;12.34;69.08;101392.88;5014643;28;45667;-76
2022/11/13 08:25:00;;;;;;;;;22.50;21.00;;;;;12.34;69.05;101391.09;5014597;28;46744;-76
2022/11/13 08:27:25;;;;;;;;;17.00;15.00;;;;;12.23;69.07;101361.22;5014521;28;45729;-76
2022/11/13 08:29:51;;;;;;;;;22.25;20.25;;;;;12.32;69.12;101382.47;5014025;28;45694;-76
2022/11/13 08:32:18;;;;;;;;;22.25;19.25;;;;;12.30;68.87;101387.00;5014187;28;45667;-77
2022/11/13 08:34:44;;;;;;;;;20.25;18.00;;;;;12.30;68.96;101388.78;5013892;28;47287;-76
2022/11/13 08:37:09;;;;;;;;;21.50;19.00;;;;;12.24;68.83;101374.25;5014485;28;45703;-75
2022/11/13 08:39:35;;;;;;;;;23.75;22.00;;;;;12.29;68.89;101373.94;5013381;28;45649;-71
2022/11/13 08:42:01;;;;;;;;;25.25;21.25;;;;;12.27;69.01;101366.16;5014200;28;45676;-74
2022/11/13 08:44:27;;;;;;;;;23.25;21.75;;;;;12.29;69.00;101371.31;5014111;28;45671;-73
2022/11/13 08:50:14;;;;;;;;;27.25;21.75;;;;;12.27;68.94;101366.16;5013778;28;46032;-75
2022/11/13 08:52:39;;;;;;;;;24.50;21.25;;;;;12.27;69.18;101360.91;5014321;28;45612;-75
2022/11/13 08:55:05;;;;;;;;;32.00;28.00;;;;;12.29;69.02;101363.44;5013534;28;47469;-73
2022/11/13 08:57:30;;;;;;;;;23.00;21.50;;;;;12.32;68.97;101368.47;5013737;28;46167;-74
2022/11/13 08:59:56;;;;;;;;;23.00;20.75;;;;;12.32;68.77;101357.97;5013748;28;45685;-74
2022/11/13 09:02:21;;;;;;;;;25.75;24.25;;;;;12.31;68.71;101359.75;5014170;28;45801;-74
2022/11/13 09:04:46;;;;;;;;;21.50;20.25;;;;;12.32;68.75;101353.56;5013724;28;45477;-76
2022/11/13 09:07:12;;;;;;;;;18.00;15.50;;;;;12.32;68.97;101344.81;5013506;28;46881;-75
2022/11/13 09:09:37;;;;;;;;;22.75;21.50;;;;;12.33;68.98;101354.41;4995727;28;45587;-77
2022/11/13 09:12:03;;;;;;;;;26.50;24.75;;;;;12.34;69.11;101354.31;5013524;28;45528;-73
2022/11/13 09:14:29;;;;;;;;;56.00;45.00;;;;;12.30;68.81;101339.69;5013668;28;46635;-75
2022/11/13 09:20:16;;;;;;;;;78.75;58.00;;;;;12.38;68.68;101353.16;5013118;28;45799;-73
2022/11/13 09:22:41;;;;;;;;;35.50;33.00;;;;;12.39;68.70;101349.59;5013746;28;45885;-75
2022/11/13 09:25:07;;;;;;;;;23.00;21.75;;;;;12.38;68.83;101342.63;5013723;28;46293;-75
2022/11/13 09:27:33;;;;;;;;;31.50;28.75;;;;;12.37;68.83;101332.22;5013285;28;47291;-74
2022/11/13 09:29:58;;;;;;;;;28.25;24.00;;;;;12.42;68.66;101338.84;4995011;28;45609;-73
2022/11/13 09:32:23;;;;;;;;;24.00;22.75;;;;;12.46;68.55;101352.66;5013500;28;45672;-76
2022/11/13 09:34:49;;;;;;;;;24.25;23.75;;;;;12.48;68.39;101345.50;5013017;28;45794;-74
2022/11/13 09:37:15;;;;;;;;;24.25;23.50;;;;;12.51;68.54;101335.63;5013380;28;46123;-78
2022/11/13 09:39:40;;;;;;;;;22.25;21.00;;;;;12.51;68.66;101335.63;5012937;28;45740;-75
2022/11/13 09:42:18;;;;;;;;;24.25;21.50;;;;;12.56;68.87;101336.16;5013093;28;45893;-76
2022/11/13 09:45:00;;;;;;;;;23.75;22.50;;;;;12.60;68.67;101340.25;5013015;28;47946;-77
2022/11/13 09:51:08;;;;;;;;;23.50;22.50;;;;;12.65;68.38;101332.06;5013998;28;45534;-74
2022/11/13 09:53:38;;;;;;;;;26.00;21.25;;;;;12.68;68.29;101329.22;4998962;28;45593;-77
2022/11/13 09:56:41;;;;;;;;;23.25;22.75;;;;;12.71;68.56;101326.38;5016466;28;46559;-77
2022/11/13 09:59:33;;;;;;;;;27.00;24.00;;;;;12.73;68.53;101323.66;4998536;28;46083;-76
2022/11/13 10:02:07;;;;;;;;;24.25;20.00;;;;;12.74;68.48;101331.41;5015950;28;45735;-77
2022/11/13 10:04:52;;;;;;;;;25.75;24.00;;;;;12.77;68.69;101325.13;5016745;28;45818;-75
2022/11/13 10:07:31;;;;;;;;;29.25;24.75;;;;;12.80;68.63;101325.75;5016508;28;46562;-75
2022/11/13 10:10:21;;;;;;;;;26.00;23.75;;;;;12.83;68.70;101322.06;5016145;28;45801;-78
2022/11/13 10:12:51;;;;;;;;;27.00;23.00;;;;;12.83;68.56;101315.03;5016374;28;45930;-78
2022/11/13 10:18:39;;;;;;;;;23.25;22.50;;;;;12.95;68.46;101310.72;5015950;28;46045;-77
2022/11/13 10:21:16;;;;;;;;;27.25;26.00;;;;;12.98;68.27;101308.69;5016389;28;45524;-76
2022/11/13 10:23:46;;;;;;;;;31.00;29.50;;;;;13.02;68.01;101306.69;5016330;28;45901;-75
2022/11/13 10:26:20;;;;;;;;;26.25;23.25;;;;;13.07;68.60;101307.19;5016407;28;45672;-77
2022/11/13 10:28:54;;;;;;;;;29.50;24.50;;;;;13.10;67.98;101299.09;5015886;28;45793;-77
2022/11/13 10:34:46;;;;;;;;;26.75;24.75;;;;;13.20;68.45;101289.63;5015733;28;45768;-75
2022/11/13 10:37:22;;;;;;;;;28.00;24.25;;;;;13.22;68.06;101287.75;5016524;28;45651;-75
2022/11/13 10:39:48;;;;;;;;;23.75;21.25;;;;;13.29;68.44;101288.13;5015501;28;46558;-76
2022/11/13 10:42:22;;;;;;;;;31.75;29.25;;;;;13.34;67.94;101286.00;5015942;28;45635;-75
2022/11/13 10:44:57;;;;;;;;;28.75;26.75;;;;;13.37;68.39;101286.66;5015893;28;45728;-72
2022/11/13 10:50:52;;;;;;;;;27.75;24.50;;;;;13.37;67.74;101270.84;5015293;28;45683;-74
2022/11/13 10:53:18;;;;;;;;;29.50;27.00;;;;;13.49;68.09;101281.44;5015761;28;45608;-76
2022/11/13 10:55:45;;;;;;;;;27.50;25.00;;;;;13.45;67.95;101255.34;5015977;28;46066;-77
2022/11/13 10:58:13;;;;;;;;;26.75;24.25;;;;;13.43;67.88;101244.09;5015839;28;45616;-76
2022/11/13 11:00:43;;;;;;;;;28.00;26.00;;;;;13.59;67.95;101259.63;5015492;28;46462;-78
2022/11/13 11:03:23;;;;;;;;;27.25;25.25;;;;;13.65;67.65;101255.69;5014563;28;47168;-77
2022/11/13 11:05:52;;;;;;;;;27.00;26.00;;;;;13.63;67.62;101242.63;5015614;28;45443;-77
2022/11/13 11:08:23;;;;;;;;;27.50;25.00;;;;;13.72;67.67;101255.09;5015353;28;45806;-76
2022/11/13 11:13:40;;;;;;;;;25.50;23.75;;;;;13.70;67.34;101225.44;5015366;28;46230;-77
2022/11/13 11:16:10;;;;;;;;;22.75;20.75;;;;;13.80;67.61;101239.59;4997259;28;45804;-76
2022/11/13 11:18:46;;;;;;;;;27.25;23.00;;;;;13.79;67.20;101216.84;5015143;28;45626;-77
2022/11/13 11:21:17;;;;;;;;;29.50;25.50;;;;;13.86;66.95;101222.50;4997439;28;47572;-77
2022/11/13 11:24:09;;;;;;;;;26.25;20.75;;;;;13.92;66.90;101215.94;5015167;28;47184;-77
2022/11/13 11:26:42;;;;;;;;;25.25;23.50;;;;;13.95;67.07;101219.16;5015458;28;45876;-78
2022/11/13 11:29:33;;;;;;;;;24.75;23.00;;;;;13.99;67.19;101212.69;5015321;28;45667;-78
2022/11/13 11:32:10;;;;;;;;;29.25;25.50;;;;;14.02;66.65;101216.91;5015151;28;46383;-77
2022/11/13 11:34:48;;;;;;;;;27.75;24.00;;;;;14.07;66.66;101210.34;5014827;28;46073;-77
2022/11/13 11:37:25;;;;;;;;;27.50;24.75;;;;;14.12;67.05;101208.19;5015418;28;45875;-76
2022/11/13 11:39:59;;;;;;;;;29.00;27.75;;;;;14.16;67.09;101204.34;5015130;28;45885;-78
2022/11/13 11:42:35;;;;;;;;;47.00;40.00;;;;;14.19;66.51;101198.88;5015231;28;45937;-76
2022/11/13 11:45:26;;;;;;;;;33.25;30.25;;;;;14.23;66.81;101200.31;5015064;28;45617;-78
2022/11/13 11:47:52;;;;;;;;;25.25;23.25;;;;;14.14;66.83;101173.81;5014787;28;45739;-76
2022/11/13 11:50:48;;;;;;;;;30.75;25.25;;;;;14.25;66.44;101184.38;5014570;28;45632;-77
2022/11/13 11:53:51;;;;;;;;;27.00;25.00;;;;;14.33;66.27;101194.31;5014212;28;46708;-74
2022/11/13 11:56:22;;;;;;;;;59.50;49.75;;;;;14.36;66.36;101186.19;5014652;28;45589;-77
2022/11/13 11:58:47;;;;;;;;;29.00;26.75;;;;;14.38;66.53;101176.38;5014247;28;45845;-75
2022/11/13 12:04:53;;;;;;;;;27.50;24.25;;;;;14.46;66.58;101174.00;5014417;28;45692;-78
2022/11/13 12:07:40;;;;;;;;;30.75;29.50;;;;;14.43;66.08;101158.38;5014641;28;46496;-76
2022/11/13 12:10:11;;;;;;;;;32.50;24.00;;;;;14.51;66.17;101159.50;5013942;28;45583;-78
2022/11/13 12:12:55;;;;;;;;;30.25;26.00;;;;;14.49;65.93;101144.72;5014472;28;45885;-76
2022/11/13 12:15:46;;;;;;;;;27.75;24.75;;;;;14.56;66.10;101157.31;5012728;28;46561;-76
2022/11/13 12:21:55;;;;;;;;;28.75;25.75;;;;;14.59;65.73;101149.16;5013862;28;45766;-73
2022/11/13 12:24:31;;;;;;;;;25.00;24.50;;;;;14.67;65.61;101156.47;5014254;28;45631;-75
2022/11/13 12:27:18;;;;;;;;;29.00;27.25;;;;;14.68;65.54;101158.16;5013685;28;47558;-74
2022/11/13 12:30:04;;;;;;;;;28.00;22.75;;;;;14.70;65.48;101151.78;5013548;28;47159;-77
2022/11/13 12:32:45;;;;;;;;;28.75;27.50;;;;;14.70;65.77;101138.59;5013946;28;45994;-75
2022/11/13 12:35:22;;;;;;;;;30.00;29.25;;;;;14.77;65.25;101136.31;5014033;28;45672;-77
2022/11/13 12:37:51;;;;;;;;;30.50;25.25;;;;;14.80;65.54;101138.69;5013380;28;47560;-76